createdAt,value
2019-03-04T00:00:51.751Z,100.00
2019-03-04T00:01:51.606Z,100.00
2019-03-04T00:02:51.963Z,100.00
2019-03-04T00:03:52.178Z,100.00
2019-03-04T00:04:52.389Z,100.00
2019-03-04T00:05:52.651Z,100.00
2019-03-04T00:06:52.824Z,100.00
2019-03-04T00:07:53.060Z,100.00
2019-03-04T00:08:53.144Z,100.00
2019-03-04T00:09:53.333Z,100.00
2019-03-04T00:10:53.527Z,100.00
2019-03-04T00:11:53.645Z,100.00
2019-03-04T00:12:53.835Z,100.00
2019-03-04T00:13:54.031Z,100.00
2019-03-04T00:14:54.251Z,100.00
2019-03-04T00:15:54.385Z,100.00
2019-03-04T00:16:54.570Z,100.00
2019-03-04T00:17:54.780Z,100.00
2019-03-04T00:18:54.980Z,100.00
2019-03-04T00:19:55.172Z,100.00
2019-03-04T00:20:55.321Z,100.00
2019-03-04T00:21:55.538Z,100.00
2019-03-04T00:22:55.752Z,100.00
2019-03-04T00:23:55.985Z,100.00
2019-03-04T00:24:56.192Z,100.00
2019-03-04T00:25:56.476Z,100.00
2019-03-04T00:26:56.514Z,100.00
2019-03-04T00:27:56.760Z,100.00
2019-03-04T00:28:56.993Z,100.00
2019-03-04T00:29:57.232Z,100.00
2019-03-04T00:30:57.420Z,100.00
2019-03-04T00:31:57.594Z,100.00
2019-03-04T00:32:57.798Z,100.00
2019-03-04T00:33:57.860Z,100.00
2019-03-04T00:34:58.088Z,100.00
2019-03-04T00:35:58.281Z,100.00
2019-03-04T00:36:58.413Z,100.00
2019-03-04T00:37:58.499Z,100.00
2019-03-04T00:38:58.662Z,100.00
2019-03-04T00:39:58.860Z,100.00
2019-03-04T00:40:59.086Z,100.00
2019-03-04T00:41:59.248Z,100.00
2019-03-04T00:42:59.458Z,100.00
2019-03-04T00:43:59.603Z,100.00
2019-03-04T00:44:59.726Z,100.00
2019-03-04T00:45:59.889Z,100.00
2019-03-04T00:46:59.987Z,100.00
2019-03-04T00:48:00.124Z,100.00
2019-03-04T00:49:00.285Z,100.00
2019-03-04T00:50:00.598Z,100.00
2019-03-04T00:51:00.945Z,100.00
2019-03-04T00:52:01.445Z,100.00
2019-03-04T00:53:02.013Z,100.00
2019-03-04T00:54:01.893Z,100.00
2019-03-04T00:55:02.110Z,100.00
2019-03-04T00:56:02.342Z,100.00
2019-03-04T00:57:02.446Z,100.00
2019-03-04T00:58:02.748Z,100.00
2019-03-04T00:59:02.954Z,100.00
2019-03-04T01:00:03.192Z,100.00
2019-03-04T01:01:03.615Z,100.00
2019-03-04T01:02:03.760Z,100.00
2019-03-04T01:03:03.874Z,100.00
2019-03-04T01:04:04.055Z,100.00
2019-03-04T01:05:04.231Z,100.00
2019-03-04T01:06:04.421Z,100.00
2019-03-04T01:07:04.645Z,100.00
2019-03-04T01:08:04.740Z,100.00
2019-03-04T01:09:04.919Z,100.00
2019-03-04T01:10:05.352Z,100.00
2019-03-04T01:11:05.512Z,100.00
2019-03-04T01:12:05.907Z,100.00
2019-03-04T01:13:06.067Z,100.00
2019-03-04T01:14:06.313Z,100.00
2019-03-04T01:15:06.589Z,100.00
2019-03-04T01:16:06.926Z,100.00
2019-03-04T01:17:07.121Z,100.00
2019-03-04T01:18:07.502Z,100.00
2019-03-04T01:19:07.834Z,100.00
2019-03-04T01:20:08.093Z,100.00
2019-03-04T01:21:08.121Z,100.00
2019-03-04T01:22:08.263Z,100.00
2019-03-04T01:23:08.463Z,100.00
2019-03-04T01:24:08.714Z,100.00
2019-03-04T01:25:08.910Z,100.00
2019-03-04T01:27:09.144Z,100.00
2019-03-04T01:28:09.363Z,100.00
2019-03-04T01:29:09.489Z,100.00
2019-03-04T01:30:09.695Z,100.00
2019-03-04T01:31:09.845Z,100.00
2019-03-04T01:32:10.130Z,100.00
2019-03-04T01:33:10.594Z,100.00
2019-03-04T01:34:10.768Z,100.00
2019-03-04T01:35:10.950Z,100.00
2019-03-04T01:36:11.106Z,100.00
2019-03-04T01:37:11.402Z,100.00
2019-03-04T01:38:11.606Z,100.00
2019-03-04T01:39:11.976Z,100.00
2019-03-04T01:40:12.288Z,100.00
2019-03-04T01:41:12.801Z,100.00
2019-03-04T01:42:12.926Z,100.00
2019-03-04T01:43:13.165Z,100.00
2019-03-04T01:44:13.308Z,100.00
2019-03-04T01:45:13.588Z,100.00
2019-03-04T01:46:13.821Z,100.00
2019-03-04T01:47:13.933Z,100.00
2019-03-04T01:48:14.015Z,100.00
2019-03-04T01:49:14.181Z,100.00
2019-03-04T01:50:14.388Z,100.00
2019-03-04T01:51:14.738Z,100.00
2019-03-04T01:52:14.941Z,100.00
2019-03-04T01:53:15.092Z,100.00
2019-03-04T01:54:15.350Z,100.00
2019-03-04T01:55:15.499Z,98.02
2019-03-04T01:56:15.739Z,97.92
2019-03-04T01:57:16.125Z,96.81
2019-03-04T01:58:16.485Z,93.92
2019-03-04T01:59:16.851Z,95.27
2019-03-04T02:00:17.598Z,92.92
2019-03-04T02:01:17.259Z,91.50
2019-03-04T02:02:17.478Z,91.71
2019-03-04T02:03:17.725Z,92.01
2019-03-04T02:04:17.879Z,90.29
2019-03-04T02:05:18.004Z,91.14
2019-03-04T02:06:18.124Z,90.64
2019-03-04T02:07:18.296Z,89.41
2019-03-04T02:08:18.432Z,89.74
2019-03-04T02:09:18.576Z,89.83
2019-03-04T02:10:18.789Z,90.33
2019-03-04T02:11:18.945Z,90.28
2019-03-04T02:12:19.050Z,89.34
2019-03-04T02:13:19.185Z,88.97
2019-03-04T02:14:19.241Z,89.72
2019-03-04T02:15:19.316Z,88.08
2019-03-04T02:16:19.361Z,88.05
2019-03-04T02:17:19.487Z,88.18
2019-03-04T02:18:19.638Z,89.36
2019-03-04T02:19:19.771Z,87.78
2019-03-04T02:20:19.945Z,88.22
2019-03-04T02:21:20.096Z,87.48
2019-03-04T02:22:20.297Z,87.59
2019-03-04T02:23:20.643Z,88.36
2019-03-04T02:24:20.967Z,87.67
2019-03-04T02:25:20.988Z,87.89
2019-03-04T02:26:21.403Z,88.16
2019-03-04T02:27:21.430Z,88.01
2019-03-04T02:28:21.652Z,88.45
2019-03-04T02:29:21.833Z,88.96
2019-03-04T02:30:22.040Z,88.94
2019-03-04T02:31:22.156Z,88.84
2019-03-04T02:32:22.262Z,88.67
2019-03-04T02:33:22.405Z,89.34
2019-03-04T02:34:22.530Z,89.09
2019-03-04T02:35:22.692Z,89.27
2019-03-04T02:36:22.872Z,89.42
2019-03-04T02:37:23.104Z,89.97
2019-03-04T02:38:23.226Z,89.95
2019-03-04T02:39:23.362Z,89.80
2019-03-04T02:40:23.479Z,90.09
2019-03-04T02:41:23.698Z,90.44
2019-03-04T02:42:23.789Z,90.52
2019-03-04T02:43:23.987Z,90.78
2019-03-04T02:44:24.116Z,90.68
2019-03-04T02:45:24.307Z,90.67
2019-03-04T02:46:24.478Z,91.12
2019-03-04T02:47:24.620Z,91.13
2019-03-04T02:48:24.822Z,91.38
2019-03-04T02:49:25.058Z,91.34
2019-03-04T02:50:25.323Z,91.69
2019-03-04T02:51:25.558Z,91.93
2019-03-04T02:52:25.775Z,92.35
2019-03-04T02:53:25.946Z,92.66
2019-03-04T02:54:26.088Z,92.82
2019-03-04T02:55:26.267Z,92.87
2019-03-04T02:56:26.483Z,93.04
2019-03-04T02:57:26.669Z,93.61
2019-03-04T02:58:26.759Z,93.54
2019-03-04T02:59:26.866Z,93.84
2019-03-04T03:00:27.111Z,94.36
2019-03-04T03:01:27.377Z,94.82
2019-03-04T03:02:27.547Z,94.59
2019-03-04T03:03:27.668Z,94.59
2019-03-04T03:04:27.827Z,94.72
2019-03-04T03:05:27.921Z,94.99
2019-03-04T03:06:28.066Z,95.18
2019-03-04T03:07:28.264Z,95.33
2019-03-04T03:08:28.379Z,95.27
2019-03-04T03:09:28.481Z,95.53
2019-03-04T03:10:28.703Z,95.52
2019-03-04T03:11:28.953Z,95.72
2019-03-04T03:12:29.121Z,95.74
2019-03-04T03:13:29.277Z,95.58
2019-03-04T03:14:29.392Z,95.61
2019-03-04T03:15:29.573Z,95.62
2019-03-04T03:16:29.756Z,95.74
2019-03-04T03:17:29.938Z,95.71
2019-03-04T03:18:30.116Z,95.81
2019-03-04T03:19:30.278Z,95.97
2019-03-04T03:20:30.543Z,95.84
2019-03-04T03:21:30.718Z,95.93
2019-03-04T03:22:31.071Z,96.00
2019-03-04T03:23:31.443Z,96.07
2019-03-04T03:24:31.826Z,96.10
2019-03-04T03:25:32.060Z,96.21
2019-03-04T03:26:32.257Z,96.05
2019-03-04T03:27:32.380Z,96.16
2019-03-04T03:28:32.523Z,96.06
2019-03-04T03:29:32.687Z,96.29
2019-03-04T03:30:32.933Z,96.02
2019-03-04T03:31:33.254Z,95.98
2019-03-04T03:32:33.240Z,95.96
2019-03-04T03:33:33.413Z,95.92
2019-03-04T03:34:33.593Z,95.94
2019-03-04T03:35:33.653Z,96.00
2019-03-04T03:36:33.800Z,96.11
2019-03-04T03:37:33.903Z,96.16
2019-03-04T03:38:34.047Z,96.12
2019-03-04T03:39:34.158Z,96.51
2019-03-04T03:40:34.293Z,96.56
2019-03-04T03:41:34.381Z,96.57
2019-03-04T03:42:34.520Z,96.40
2019-03-04T03:43:34.650Z,96.48
2019-03-04T03:44:34.780Z,96.58
2019-03-04T03:45:34.936Z,96.70
2019-03-04T03:46:35.094Z,96.51
2019-03-04T03:47:35.229Z,96.48
2019-03-04T03:48:35.366Z,96.34
2019-03-04T03:49:35.594Z,96.49
2019-03-04T03:50:35.733Z,97.12
2019-03-04T03:51:35.953Z,98.12
2019-03-04T03:52:36.095Z,98.54
2019-03-04T03:54:36.349Z,98.91
2019-03-04T03:55:36.574Z,100.00
2019-03-04T03:56:36.738Z,100.00
2019-03-04T03:57:36.969Z,100.00
2019-03-04T03:58:37.168Z,100.00
2019-03-04T03:59:37.326Z,100.00
2019-03-04T04:00:37.544Z,100.00
2019-03-04T04:01:37.724Z,100.00
2019-03-04T04:02:37.983Z,100.00
2019-03-04T04:03:38.195Z,100.00
2019-03-04T04:04:38.396Z,100.00
2019-03-04T04:05:38.585Z,100.00
2019-03-04T04:06:38.727Z,100.00
2019-03-04T04:07:38.917Z,100.00
2019-03-04T04:08:39.080Z,100.00
2019-03-04T04:09:39.285Z,100.00
2019-03-04T04:10:39.457Z,100.00
2019-03-04T04:11:39.647Z,100.00
2019-03-04T04:12:39.823Z,100.00
2019-03-04T04:13:40.122Z,100.00
2019-03-04T04:14:40.313Z,100.00
2019-03-04T04:15:40.441Z,100.00
2019-03-04T04:16:40.612Z,100.00
2019-03-04T04:17:40.852Z,100.00
2019-03-04T04:18:41.098Z,100.00
2019-03-04T04:19:41.277Z,100.00
2019-03-04T04:20:41.443Z,100.00
2019-03-04T04:21:41.629Z,100.00
2019-03-04T04:22:41.882Z,100.00
2019-03-04T04:23:41.994Z,100.00
2019-03-04T04:24:42.181Z,100.00
2019-03-04T04:25:42.360Z,100.00
2019-03-04T04:26:42.603Z,100.00
2019-03-04T04:27:42.775Z,100.00
2019-03-04T04:28:43.003Z,100.00
2019-03-04T04:29:43.260Z,100.00
2019-03-04T04:30:43.366Z,100.00
2019-03-04T04:31:43.587Z,100.00
2019-03-04T04:32:48.297Z,100.00
2019-03-04T04:33:44.074Z,100.00
2019-03-04T04:34:44.291Z,100.00
2019-03-04T04:35:44.481Z,100.00
2019-03-04T04:36:44.737Z,100.00
2019-03-04T04:37:44.857Z,100.00
2019-03-04T04:38:45.025Z,100.00
2019-03-04T04:40:45.128Z,99.96
2019-03-04T04:41:45.231Z,99.89
2019-03-04T04:42:45.383Z,100.00
2019-03-04T04:43:45.598Z,100.00
2019-03-04T04:44:45.920Z,100.00
2019-03-04T04:45:46.306Z,100.00
2019-03-04T04:46:46.609Z,100.00
2019-03-04T04:47:46.907Z,100.00
2019-03-04T04:48:47.326Z,100.00
2019-03-04T04:49:47.469Z,100.00
2019-03-04T04:50:47.681Z,100.00
2019-03-04T04:51:47.905Z,100.00
2019-03-04T04:52:48.009Z,100.00
2019-03-04T04:53:48.063Z,100.00
2019-03-04T04:54:48.185Z,100.00
2019-03-04T04:55:48.364Z,100.00
2019-03-04T04:56:48.501Z,100.00
2019-03-04T04:57:48.589Z,100.00
2019-03-04T04:58:48.663Z,100.00
2019-03-04T04:59:48.740Z,100.00
2019-03-04T05:00:48.887Z,100.00
2019-03-04T05:01:49.001Z,99.90
2019-03-04T05:02:49.125Z,100.00
2019-03-04T05:03:49.246Z,99.96
2019-03-04T05:04:49.300Z,99.93
2019-03-04T05:05:49.396Z,99.76
2019-03-04T05:06:49.522Z,99.47
2019-03-04T05:07:49.628Z,99.75
2019-03-04T05:08:49.712Z,99.64
2019-03-04T05:09:49.898Z,99.60
2019-03-04T05:10:50.061Z,99.66
2019-03-04T05:11:50.174Z,99.58
2019-03-04T05:12:50.329Z,99.47
2019-03-04T05:13:50.459Z,99.29
2019-03-04T05:14:50.558Z,98.73
2019-03-04T05:15:50.825Z,98.99
2019-03-04T05:16:50.772Z,98.98
2019-03-04T05:17:50.953Z,98.89
2019-03-04T05:18:51.148Z,98.85
2019-03-04T05:19:51.303Z,98.80
2019-03-04T05:20:51.477Z,98.58
2019-03-04T05:21:51.542Z,98.51
2019-03-04T05:22:51.637Z,98.41
2019-03-04T05:23:51.770Z,98.41
2019-03-04T05:24:51.945Z,98.35
2019-03-04T05:25:52.070Z,98.10
2019-03-04T05:26:52.265Z,97.96
2019-03-04T05:27:52.418Z,98.09
2019-03-04T05:28:52.663Z,98.16
2019-03-04T05:29:53.022Z,98.20
2019-03-04T05:31:53.228Z,98.15
2019-03-04T05:32:53.404Z,98.03
2019-03-04T05:33:53.599Z,98.08
2019-03-04T05:34:53.741Z,97.84
2019-03-04T05:35:53.897Z,97.48
2019-03-04T05:36:54.033Z,97.17
2019-03-04T05:37:54.142Z,96.68
2019-03-04T05:38:54.288Z,96.39
2019-03-04T05:39:54.460Z,96.46
2019-03-04T05:40:54.641Z,96.06
2019-03-04T05:41:54.822Z,96.01
2019-03-04T05:42:54.975Z,95.94
2019-03-04T05:44:55.156Z,95.44
2019-03-04T05:45:55.371Z,95.08
2019-03-04T05:46:55.416Z,94.71
2019-03-04T05:47:55.586Z,94.73
2019-03-04T05:48:55.774Z,94.84
2019-03-04T05:49:55.892Z,94.62
2019-03-04T05:50:56.020Z,94.63
2019-03-04T05:51:56.217Z,94.40
2019-03-04T05:52:56.429Z,94.70
2019-03-04T05:53:56.489Z,94.89
2019-03-04T05:54:56.621Z,94.82
2019-03-04T05:55:56.768Z,94.87
2019-03-04T05:56:56.965Z,94.80
2019-03-04T05:57:57.158Z,93.98
2019-03-04T05:58:57.286Z,93.59
2019-03-04T05:59:57.345Z,93.76
2019-03-04T06:00:57.495Z,93.23
2019-03-04T06:01:57.896Z,93.65
2019-03-04T06:02:58.283Z,93.35
2019-03-04T06:03:58.419Z,93.19
2019-03-04T06:04:58.699Z,93.02
2019-03-04T06:05:58.957Z,91.41
2019-03-04T06:06:59.161Z,92.34
2019-03-04T06:07:59.495Z,91.87
2019-03-04T06:09:00.020Z,91.92
2019-03-04T06:10:00.349Z,91.34
2019-03-04T06:11:00.459Z,91.36
2019-03-04T06:12:00.758Z,91.64
2019-03-04T06:13:01.077Z,91.75
2019-03-04T06:14:01.532Z,91.38
2019-03-04T06:15:01.520Z,90.60
2019-03-04T06:16:01.448Z,90.77
2019-03-04T06:17:01.954Z,90.33
2019-03-04T06:18:02.311Z,89.57
2019-03-04T06:19:02.484Z,89.81
2019-03-04T06:20:02.954Z,89.57
2019-03-04T06:21:02.906Z,88.65
2019-03-04T06:22:03.190Z,88.91
2019-03-04T06:23:03.328Z,89.04
2019-03-04T06:24:03.601Z,89.38
2019-03-04T06:25:03.752Z,88.86
2019-03-04T06:26:04.083Z,88.74
2019-03-04T06:27:04.176Z,87.71
2019-03-04T06:28:04.258Z,88.57
2019-03-04T06:29:04.502Z,88.18
2019-03-04T06:30:04.656Z,87.24
2019-03-04T06:31:04.744Z,88.31
2019-03-04T06:32:04.976Z,88.97
2019-03-04T06:33:05.128Z,89.59
2019-03-04T06:34:05.220Z,90.03
2019-03-04T06:35:05.467Z,92.55
2019-03-04T06:36:05.787Z,93.48
2019-03-04T06:37:06.070Z,94.00
2019-03-04T06:38:06.242Z,95.30
2019-03-04T06:39:06.330Z,97.63
2019-03-04T06:40:06.565Z,96.86
2019-03-04T06:41:06.815Z,98.10
2019-03-04T06:43:07.011Z,100.00
2019-03-04T06:44:07.215Z,100.00
2019-03-04T06:45:07.368Z,100.00
2019-03-04T06:46:07.617Z,100.00
2019-03-04T06:47:07.843Z,100.00
2019-03-04T06:48:08.041Z,100.00
2019-03-04T06:49:08.306Z,100.00
2019-03-04T06:50:08.575Z,100.00
2019-03-04T06:51:08.661Z,100.00
2019-03-04T06:52:08.769Z,100.00
2019-03-04T06:53:09.324Z,100.00
2019-03-04T06:54:08.896Z,100.00
2019-03-04T06:55:09.108Z,100.00
2019-03-04T06:56:09.434Z,100.00
2019-03-04T06:57:09.500Z,100.00
2019-03-04T06:58:09.661Z,100.00
2019-03-04T06:59:09.730Z,100.00
2019-03-04T07:00:09.913Z,100.00
2019-03-04T07:01:10.602Z,100.00
2019-03-04T07:02:10.546Z,100.00
2019-03-04T07:03:10.630Z,100.00
2019-03-04T07:04:10.566Z,100.00
2019-03-04T07:05:10.712Z,100.00
2019-03-04T07:06:10.669Z,100.00
2019-03-04T07:07:10.908Z,100.00
2019-03-04T07:08:11.050Z,100.00
2019-03-04T07:10:11.605Z,100.00
2019-03-04T07:11:11.691Z,100.00
2019-03-04T07:12:11.836Z,100.00
2019-03-04T07:13:12.076Z,100.00
2019-03-04T07:14:12.240Z,100.00
2019-03-04T07:15:12.421Z,100.00
2019-03-04T07:16:12.637Z,100.00
2019-03-04T07:17:12.794Z,100.00
2019-03-04T07:18:12.939Z,100.00
2019-03-04T07:19:13.138Z,100.00
2019-03-04T07:20:13.391Z,100.00
2019-03-04T07:21:13.559Z,98.12
2019-03-04T07:22:13.694Z,100.00
2019-03-04T07:23:13.775Z,100.00
2019-03-04T07:24:13.963Z,99.82
2019-03-04T07:25:14.164Z,98.71
2019-03-04T07:26:14.317Z,96.53
2019-03-04T07:27:14.440Z,94.80
2019-03-04T07:28:14.750Z,95.18
2019-03-04T07:29:15.241Z,94.86
2019-03-04T07:30:15.464Z,94.32
2019-03-04T07:31:15.712Z,93.46
2019-03-04T07:32:15.874Z,94.07
2019-03-04T07:33:16.334Z,93.55
2019-03-04T07:35:16.736Z,92.25
2019-03-04T07:36:17.039Z,92.24
2019-03-04T07:37:17.246Z,89.70
2019-03-04T07:38:17.550Z,90.33
2019-03-04T07:39:17.702Z,89.42
2019-03-04T07:40:18.120Z,88.78
2019-03-04T07:41:18.325Z,90.52
2019-03-04T07:42:18.444Z,89.27
2019-03-04T07:43:18.764Z,88.67
2019-03-04T07:44:18.872Z,87.44
2019-03-04T07:45:18.957Z,87.80
2019-03-04T07:46:19.056Z,89.32
2019-03-04T07:47:19.152Z,88.14
2019-03-04T07:48:19.253Z,85.62
2019-03-04T07:49:19.405Z,86.14
2019-03-04T07:50:19.458Z,86.48
2019-03-04T07:51:19.520Z,85.07
2019-03-04T07:52:19.667Z,83.60
2019-03-04T07:53:19.792Z,83.74
2019-03-04T07:54:19.894Z,82.75
2019-03-04T07:55:19.927Z,83.56
2019-03-04T07:56:19.990Z,83.30
2019-03-04T07:57:20.065Z,82.35
2019-03-04T07:58:20.160Z,82.02
2019-03-04T07:59:20.244Z,80.81
2019-03-04T08:00:20.400Z,81.30
2019-03-04T08:01:20.596Z,79.82
2019-03-04T08:02:20.738Z,79.62
2019-03-04T08:03:20.891Z,79.64
2019-03-04T08:04:21.069Z,80.99
2019-03-04T08:05:21.259Z,78.77
2019-03-04T08:06:21.358Z,78.83
2019-03-04T08:07:21.525Z,77.94
2019-03-04T08:08:21.930Z,77.89
2019-03-04T08:09:22.097Z,76.70
2019-03-04T08:10:22.254Z,77.41
2019-03-04T08:11:22.571Z,76.87
2019-03-04T08:12:22.915Z,77.12
2019-03-04T08:13:23.498Z,74.92
2019-03-04T08:14:23.946Z,74.66
2019-03-04T08:15:24.054Z,75.62
2019-03-04T08:16:24.456Z,73.10
2019-03-04T08:17:24.615Z,73.03
2019-03-04T08:18:24.777Z,72.45
2019-03-04T08:19:24.981Z,72.49
2019-03-04T08:20:25.185Z,73.18
2019-03-04T08:21:25.313Z,72.34
2019-03-04T08:22:25.560Z,71.77
2019-03-04T08:23:25.651Z,70.67
2019-03-04T08:24:25.720Z,71.37
2019-03-04T08:25:25.836Z,69.50
2019-03-04T08:26:25.982Z,70.10
2019-03-04T08:27:26.115Z,69.46
2019-03-04T08:28:26.516Z,68.77
2019-03-04T08:29:26.645Z,68.95
2019-03-04T08:30:26.785Z,68.78
2019-03-04T08:31:26.915Z,70.42
2019-03-04T08:32:27.046Z,69.82
2019-03-04T08:33:27.124Z,69.88
2019-03-04T08:34:30.968Z,68.09
2019-03-04T08:35:27.476Z,67.91
2019-03-04T08:36:27.648Z,68.58
2019-03-04T08:37:27.831Z,66.77
2019-03-04T08:38:27.920Z,66.73
2019-03-04T08:39:28.117Z,66.92
2019-03-04T08:40:28.305Z,66.14
2019-03-04T08:41:28.453Z,67.82
2019-03-04T08:42:28.733Z,66.81
2019-03-04T08:43:28.932Z,67.21
2019-03-04T08:44:31.086Z,66.42
2019-03-04T08:45:29.293Z,65.67
2019-03-04T08:46:29.507Z,66.50
2019-03-04T08:47:29.613Z,67.28
2019-03-04T08:48:29.782Z,68.68
2019-03-04T08:49:29.947Z,69.00
2019-03-04T08:50:30.077Z,75.44
2019-03-04T08:51:30.238Z,80.13
2019-03-04T08:52:30.497Z,82.58
2019-03-04T08:53:31.050Z,85.27
2019-03-04T08:54:30.950Z,92.52
2019-03-04T08:55:31.164Z,100.00
2019-03-04T08:56:31.363Z,100.00
2019-03-04T08:57:31.736Z,100.00
2019-03-04T08:58:34.230Z,100.00
2019-03-04T08:59:32.125Z,100.00
2019-03-04T09:00:32.231Z,100.00
2019-03-04T09:01:32.513Z,100.00
2019-03-04T09:02:32.680Z,100.00
2019-03-04T09:03:32.873Z,100.00
2019-03-04T09:04:32.938Z,100.00
2019-03-04T09:05:33.098Z,100.00
2019-03-04T09:06:33.174Z,100.00
2019-03-04T09:07:33.282Z,95.33
2019-03-04T09:08:33.357Z,95.06
2019-03-04T09:09:33.382Z,92.33
2019-03-04T09:10:33.434Z,89.68
2019-03-04T09:11:33.494Z,87.91
2019-03-04T09:12:35.820Z,87.37
2019-03-04T09:13:33.735Z,86.03
2019-03-04T09:14:33.860Z,87.16
2019-03-04T09:15:33.977Z,84.90
2019-03-04T09:16:34.008Z,84.37
2019-03-04T09:17:34.048Z,83.56
2019-03-04T09:18:34.181Z,83.39
2019-03-04T09:19:34.286Z,81.78
2019-03-04T09:20:34.395Z,82.60
2019-03-04T09:21:34.425Z,79.98
2019-03-04T09:22:34.494Z,81.51
2019-03-04T09:23:34.634Z,81.12
2019-03-04T09:24:34.751Z,81.20
2019-03-04T09:25:34.842Z,80.61
2019-03-04T09:26:35.026Z,80.36
2019-03-04T09:27:35.204Z,80.37
2019-03-04T09:29:35.333Z,79.73
2019-03-04T09:30:35.494Z,79.58
2019-03-04T09:31:35.695Z,79.10
2019-03-04T09:32:35.904Z,79.03
2019-03-04T09:33:36.101Z,79.20
2019-03-04T09:34:36.333Z,78.44
2019-03-04T09:35:36.460Z,78.97
2019-03-04T09:36:36.535Z,76.61
2019-03-04T09:37:36.707Z,76.82
2019-03-04T09:38:36.915Z,75.52
2019-03-04T09:39:37.111Z,74.50
2019-03-04T09:40:37.317Z,71.62
2019-03-04T09:41:37.499Z,67.51
2019-03-04T09:42:37.701Z,67.30
2019-03-04T09:43:37.902Z,67.52
2019-03-04T09:44:38.092Z,69.34
2019-03-04T09:45:39.421Z,66.29
2019-03-04T09:46:38.431Z,65.77
2019-03-04T09:47:38.648Z,66.76
2019-03-04T09:48:38.833Z,66.50
2019-03-04T09:49:38.992Z,67.27
2019-03-04T09:50:39.192Z,68.59
2019-03-04T09:51:39.435Z,67.98
2019-03-04T09:52:39.521Z,66.94
2019-03-04T09:53:39.968Z,66.68
2019-03-04T09:54:39.940Z,68.45
2019-03-04T09:55:40.094Z,68.31
2019-03-04T09:56:40.214Z,68.96
2019-03-04T09:57:40.361Z,68.85
2019-03-04T09:58:40.565Z,69.02
2019-03-04T09:59:40.766Z,69.78
2019-03-04T10:00:41.009Z,68.97
2019-03-04T10:01:41.099Z,67.22
2019-03-04T10:02:41.610Z,66.34
2019-03-04T10:03:41.522Z,63.00
2019-03-04T10:04:41.859Z,62.32
2019-03-04T10:05:42.375Z,63.49
2019-03-04T10:06:42.795Z,65.37
2019-03-04T10:07:43.187Z,66.15
2019-03-04T10:08:43.544Z,64.88
2019-03-04T10:09:43.803Z,64.31
2019-03-04T10:10:43.858Z,64.64
2019-03-04T10:11:43.996Z,65.87
2019-03-04T10:12:44.064Z,64.38
2019-03-04T10:13:44.193Z,64.63
2019-03-04T10:14:44.218Z,65.20
2019-03-04T10:15:44.740Z,64.50
2019-03-04T10:16:45.221Z,64.59
2019-03-04T10:17:45.273Z,64.38
2019-03-04T10:18:45.368Z,63.75
2019-03-04T10:19:45.598Z,60.88
2019-03-04T10:20:45.829Z,59.63
2019-03-04T10:21:45.931Z,61.15
2019-03-04T10:22:45.974Z,61.13
2019-03-04T10:23:46.579Z,60.61
2019-03-04T10:24:46.790Z,59.56
2019-03-04T10:25:46.972Z,60.18
2019-03-04T10:26:47.127Z,59.45
2019-03-04T10:27:47.937Z,57.24
2019-03-04T10:28:48.313Z,58.31
2019-03-04T10:29:47.737Z,57.15
2019-03-04T10:30:48.340Z,57.40
2019-03-04T10:31:47.868Z,57.97
2019-03-04T10:32:48.439Z,57.32
2019-03-04T10:33:48.399Z,57.99
2019-03-04T10:34:48.415Z,60.15
2019-03-04T10:35:48.802Z,60.52
2019-03-04T10:36:48.933Z,63.13
2019-03-04T10:37:49.377Z,66.34
2019-03-04T10:38:49.752Z,68.87
2019-03-04T10:39:50.324Z,67.72
2019-03-04T10:40:50.690Z,69.37
2019-03-04T10:41:50.749Z,70.72
2019-03-04T10:42:51.037Z,69.84
2019-03-04T10:43:51.093Z,70.09
2019-03-04T10:44:51.249Z,68.78
2019-03-04T10:45:51.346Z,69.19
2019-03-04T10:46:51.687Z,68.83
2019-03-04T10:47:51.832Z,68.41
2019-03-04T10:48:52.041Z,67.57
2019-03-04T10:49:52.382Z,66.84
2019-03-04T10:50:52.682Z,66.48
2019-03-04T10:51:52.754Z,66.12
2019-03-04T10:52:53.057Z,67.51
2019-03-04T10:53:53.318Z,67.74
2019-03-04T10:54:53.669Z,68.41
2019-03-04T10:55:54.063Z,68.55
2019-03-04T10:56:54.497Z,69.24
2019-03-04T10:57:54.333Z,73.23
2019-03-04T10:58:54.695Z,76.87
2019-03-04T10:59:54.937Z,79.43
2019-03-04T11:00:55.201Z,82.16
2019-03-04T11:01:55.481Z,85.50
2019-03-04T11:02:56.082Z,86.57
2019-03-04T11:03:55.972Z,89.95
2019-03-04T11:04:56.181Z,89.39
2019-03-04T11:05:56.288Z,93.40
2019-03-04T11:06:58.438Z,96.79
2019-03-04T11:07:56.882Z,93.31
2019-03-04T11:08:57.047Z,96.56
2019-03-04T11:09:57.223Z,100.00
2019-03-04T11:10:57.357Z,100.00
2019-03-04T11:11:57.461Z,100.00
2019-03-04T11:12:57.697Z,100.00
2019-03-04T11:13:58.041Z,100.00
2019-03-04T11:14:58.468Z,100.00
2019-03-04T11:15:58.568Z,100.00
2019-03-04T11:16:58.705Z,100.00
2019-03-04T11:17:58.853Z,100.00
2019-03-04T11:18:59.044Z,100.00
2019-03-04T11:19:59.226Z,100.00
2019-03-04T11:20:59.547Z,100.00
2019-03-04T11:21:59.872Z,100.00
2019-03-04T11:22:59.721Z,100.00
2019-03-04T11:24:00.010Z,100.00
2019-03-04T11:25:00.317Z,100.00
2019-03-04T11:26:00.278Z,100.00
2019-03-04T11:27:00.488Z,100.00
2019-03-04T11:28:00.692Z,100.00
2019-03-04T11:29:01.179Z,98.60
2019-03-04T11:30:01.636Z,96.94
2019-03-04T11:31:01.713Z,98.43
2019-03-04T11:32:02.881Z,100.00
2019-03-04T11:33:09.185Z,99.90
2019-03-04T11:34:02.614Z,95.56
2019-03-04T11:35:02.851Z,93.96
2019-03-04T11:36:04.954Z,94.64
2019-03-04T11:37:04.653Z,94.81
2019-03-04T11:38:05.877Z,94.13
2019-03-04T11:39:03.350Z,91.43
2019-03-04T11:40:03.460Z,91.35
2019-03-04T11:41:03.567Z,93.02
2019-03-04T11:42:03.722Z,90.07
2019-03-04T11:43:03.951Z,91.15
2019-03-04T11:44:04.089Z,90.63
2019-03-04T11:45:04.158Z,90.54
2019-03-04T11:46:04.671Z,89.68
2019-03-04T11:47:04.742Z,89.68
2019-03-04T11:48:04.995Z,88.82
2019-03-04T11:49:05.154Z,88.73
2019-03-04T11:50:05.403Z,89.85
2019-03-04T11:51:07.839Z,90.58
2019-03-04T11:52:05.599Z,89.47
2019-03-04T11:53:05.848Z,89.00
2019-03-04T11:54:06.045Z,88.60
2019-03-04T11:55:06.336Z,88.35
2019-03-04T11:56:06.402Z,88.82
2019-03-04T11:57:06.675Z,89.21
2019-03-04T11:58:06.924Z,89.33
2019-03-04T11:59:07.023Z,89.18
2019-03-04T12:00:07.151Z,89.68
2019-03-04T12:01:07.440Z,90.81
2019-03-04T12:02:09.335Z,91.11
2019-03-04T12:03:07.855Z,91.29
2019-03-04T12:04:08.047Z,90.35
2019-03-04T12:05:08.225Z,89.78
2019-03-04T12:06:09.073Z,85.83
2019-03-04T12:07:08.737Z,86.56
2019-03-04T12:08:08.977Z,87.00
2019-03-04T12:09:09.316Z,85.25
2019-03-04T12:10:09.482Z,84.81
2019-03-04T12:11:11.935Z,80.26
2019-03-04T12:12:09.964Z,81.05
2019-03-04T12:13:10.241Z,82.56
2019-03-04T12:14:12.703Z,82.92
2019-03-04T12:15:12.402Z,83.32
2019-03-04T12:16:12.753Z,82.48
2019-03-04T12:17:11.291Z,81.70
2019-03-04T12:18:12.876Z,77.97
2019-03-04T12:19:13.730Z,74.22
2019-03-04T12:20:13.278Z,75.89
2019-03-04T12:21:13.371Z,77.41
2019-03-04T12:22:14.941Z,78.50
2019-03-04T12:23:12.460Z,77.89
2019-03-04T12:24:12.713Z,76.28
2019-03-04T12:25:12.913Z,75.65
2019-03-04T12:26:13.113Z,74.79
2019-03-04T12:27:13.245Z,75.68
2019-03-04T12:28:13.404Z,75.10
2019-03-04T12:29:13.480Z,75.74
2019-03-04T12:30:13.616Z,74.69
2019-03-04T12:31:14.036Z,74.80
2019-03-04T12:32:14.271Z,75.05
2019-03-04T12:33:14.328Z,70.73
2019-03-04T12:34:24.287Z,71.72
2019-03-04T12:35:14.650Z,71.45
2019-03-04T12:36:14.790Z,72.21
2019-03-04T12:37:15.009Z,72.09
2019-03-04T12:38:15.216Z,72.08
2019-03-04T12:39:15.372Z,74.09
2019-03-04T12:40:15.730Z,75.96
2019-03-04T12:41:16.071Z,76.59
2019-03-04T12:42:16.362Z,79.77
2019-03-04T12:43:16.725Z,81.16
2019-03-04T12:44:17.111Z,81.97
2019-03-04T12:45:17.461Z,82.88
2019-03-04T12:46:17.765Z,82.92
2019-03-04T12:47:17.973Z,83.82
2019-03-04T12:48:18.286Z,86.02
2019-03-04T12:49:18.350Z,86.61
2019-03-04T12:50:18.498Z,88.24
2019-03-04T12:51:23.119Z,89.86
2019-03-04T12:52:18.956Z,89.40
2019-03-04T12:53:19.092Z,91.93
2019-03-04T12:54:19.153Z,94.53
2019-03-04T12:55:19.224Z,96.63
2019-03-04T12:56:19.264Z,99.47